Time,TemperatureF,DewpointF,PressureIn,WindDirection,WindDirectionDegrees,WindSpeedMPH,WindSpeedGustMPH,Humidity,HourlyPrecipIn,Conditions,Clouds,dailyrainin,SoftwareType,DateUTC
2013-08-15 00:41:00,62.0,61.0,29.89,North,0,0.0,-999.0,95,0.00,,,-99.99,,2013-08-15 07:41:00,
2013-08-15 00:52:00,62.0,61.0,29.89,North,0,0.0,-999.0,95,0.00,,,-99.99,,2013-08-15 07:52:00,
2013-08-15 01:41:00,62.0,61.0,29.88,North,0,0.0,-999.0,95,0.00,,,-99.99,,2013-08-15 08:41:00,
2013-08-15 01:52:00,62.0,61.0,29.88,North,0,0.0,-999.0,95,0.00,,,-99.99,,2013-08-15 08:52:00,
2013-08-15 02:42:00,62.0,61.0,29.89,SSE,150,1.0,-999.0,95,0.00,,,-99.99,,2013-08-15 09:42:00,
2013-08-15 02:53:00,62.0,61.0,29.89,SSE,150,1.0,-999.0,95,0.00,,,-99.99,,2013-08-15 09:53:00,
2013-08-15 03:42:00,62.0,61.0,29.88,North,0,0.0,-999.0,96,0.00,,,-99.99,,2013-08-15 10:42:00,
2013-08-15 03:52:00,62.0,61.0,29.88,North,0,0.0,-999.0,96,0.00,,,-99.99,,2013-08-15 10:52:00,
2013-08-15 04:42:00,62.0,61.0,29.87,North,0,0.0,-999.0,96,0.00,,,-99.99,,2013-08-15 11:42:00,
2013-08-15 04:51:00,62.0,61.0,29.87,North,0,0.0,-999.0,96,0.00,,,-99.99,,2013-08-15 11:51:00,
2013-08-15 05:42:00,62.0,61.0,29.87,North,0,0.0,-999.0,96,0.00,,,-99.99,,2013-08-15 12:42:00,
2013-08-15 05:51:00,62.0,61.0,29.87,North,0,0.0,-999.0,96,0.00,,,-99.99,,2013-08-15 12:51:00,
2013-08-15 06:42:00,61.0,60.0,29.88,North,0,0.0,-999.0,96,0.00,,,-99.99,,2013-08-15 13:42:00,
2013-08-15 06:52:00,61.0,60.0,29.88,North,0,0.0,-999.0,96,0.00,,,-99.99,,2013-08-15 13:52:00,
2013-08-15 07:43:00,62.0,61.0,29.90,SSE,160,1.0,-999.0,97,0.00,,,-99.99,,2013-08-15 14:43:00,
2013-08-15 07:53:00,62.0,61.0,29.90,SSE,160,1.0,-999.0,97,0.00,,,-99.99,,2013-08-15 14:53:00,
2013-08-15 07:54:00,62.0,61.0,29.91,South,170,2.0,-999.0,96,0.00,,,-99.99,,2013-08-15 14:54:00,
2013-08-15 08:43:00,62.0,61.0,29.91,South,170,2.0,-999.0,96,0.00,,,-99.99,,2013-08-15 15:43:00,
2013-08-15 08:54:00,63.0,61.0,29.92,SSW,200,2.0,-999.0,94,0.00,,,-99.99,,2013-08-15 15:54:00,
2013-08-15 09:44:00,63.0,61.0,29.92,SSW,200,2.0,-999.0,94,0.00,,,-99.99,,2013-08-15 16:44:00,
2013-08-15 09:54:00,-999.0,-99.9,29.93,WSW,240,2.0,-999.0,-999,-99.99,,,-99.99,,2013-08-15 16:54:00,
2013-08-15 10:53:00,66.0,62.0,29.93,WSW,240,2.0,-999.0,87,0.00,,,-99.99,,2013-08-15 17:53:00,
2013-08-15 11:35:00,-999.0,-99.9,29.92,SW,220,5.0,-999.0,-999,0.00,,,-99.99,,2013-08-15 18:35:00,
2013-08-15 11:40:00,-999.0,-99.9,29.92,SW,220,5.0,-999.0,90,0.00,,,-99.99,,2013-08-15 18:40:00,
2013-08-15 11:49:00,66.0,63.0,29.92,SW,220,5.0,-999.0,90,0.00,,,-99.99,,2013-08-15 18:49:00,
2013-08-15 11:54:00,66.0,63.0,29.92,SSW,210,5.0,-999.0,90,0.00,,,-99.99,,2013-08-15 18:54:00,
2013-08-15 12:34:00,-999.0,-99.9,29.92,SSW,210,5.0,-999.0,-999,-99.99,,,-99.99,,2013-08-15 19:34:00,
2013-08-15 12:49:00,66.0,63.0,29.92,SSW,210,5.0,-999.0,90,0.00,,,-99.99,,2013-08-15 19:49:00,
2013-08-15 13:44:00,66.0,62.0,29.92,WNW,290,4.0,-999.0,88,0.00,,,-99.99,,2013-08-15 20:44:00,
2013-08-15 13:54:00,66.0,62.0,29.92,WNW,290,4.0,-999.0,88,0.00,,,-99.99,,2013-08-15 20:54:00,
2013-08-15 13:55:00,67.0,63.0,29.91,SW,220,6.0,-999.0,88,0.00,,,-99.99,,2013-08-15 20:55:00,
2013-08-15 14:49:00,67.0,63.0,29.91,SW,220,6.0,-999.0,88,0.00,,,-99.99,,2013-08-15 21:49:00,
2013-08-15 14:55:00,67.0,63.0,29.90,South,180,4.0,-999.0,88,0.00,,,-99.99,,2013-08-15 21:55:00,
2013-08-15 15:29:00,67.0,63.0,29.90,South,180,4.0,-999.0,88,0.00,,,-99.99,,2013-08-15 22:29:00,
2013-08-15 15:40:00,67.0,63.0,29.90,South,180,4.0,-999.0,88,0.00,,,-99.99,,2013-08-15 22:40:00,
2013-08-15 15:49:00,67.0,63.0,29.90,South,180,4.0,-999.0,88,0.00,,,-99.99,,2013-08-15 22:49:00,
2013-08-15 15:55:00,68.0,63.0,29.89,South,190,5.0,-999.0,84,0.00,,,-99.99,,2013-08-15 22:55:00,
2013-08-15 16:34:00,-999.0,-99.9,29.89,South,190,5.0,-999.0,84,0.00,,,-99.99,,2013-08-15 23:34:00,
2013-08-15 16:48:00,68.0,63.0,29.89,South,190,5.0,-999.0,84,0.00,,,-99.99,,2013-08-15 23:48:00,
2013-08-15 17:46:00,69.0,63.0,29.89,WSW,250,9.0,-999.0,82,0.00,,,-99.99,,2013-08-16 00:46:00,
2013-08-15 17:52:00,69.0,63.0,29.89,WSW,250,9.0,-999.0,82,0.00,,,-99.99,,2013-08-16 00:52:00,
2013-08-15 18:42:00,-999.0,-99.9,29.89,South,170,4.0,-999.0,-999,-99.99,,,-99.99,,2013-08-16 01:42:00,
2013-08-15 18:54:00,67.0,63.0,29.89,South,170,4.0,-999.0,87,0.00,,,-99.99,,2013-08-16 01:54:00,
2013-08-15 19:43:00,66.0,62.0,29.89,North,0,0.0,-999.0,88,0.00,,,-99.99,,2013-08-16 02:43:00,
2013-08-15 19:52:00,66.0,62.0,29.89,North,0,0.0,-999.0,88,0.00,,,-99.99,,2013-08-16 02:52:00,
2013-08-15 20:43:00,65.0,62.0,29.90,SSE,150,2.0,-999.0,91,0.00,,,-99.99,,2013-08-16 03:43:00,
2013-08-15 20:53:00,65.0,62.0,29.90,SSE,150,2.0,-999.0,91,0.00,,,-99.99,,2013-08-16 03:53:00,
2013-08-15 21:42:00,64.0,62.0,29.92,South,170,1.0,-999.0,92,0.00,,,-99.99,,2013-08-16 04:42:00,
2013-08-15 21:53:00,64.0,62.0,29.92,South,170,1.0,-999.0,92,0.00,,,-99.99,,2013-08-16 04:53:00,
2013-08-15 22:42:00,64.0,62.0,29.92,North,0,0.0,-999.0,92,0.00,,,-99.99,,2013-08-16 05:42:00,